createdAt,value
2023-04-16T00:01:37.371Z,7.30
2023-04-16T00:04:04.075Z,7.21
2023-04-16T00:06:30.582Z,7.20
2023-04-16T00:08:56.996Z,7.21
2023-04-16T00:11:23.496Z,7.22
2023-04-16T00:13:49.843Z,7.18
2023-04-16T00:16:16.344Z,7.24
2023-04-16T00:18:45.286Z,7.23
2023-04-16T00:21:11.660Z,7.19
2023-04-16T00:23:38.186Z,7.22
2023-04-16T00:26:04.574Z,7.19
2023-04-16T00:28:30.981Z,7.08
2023-04-16T00:30:57.346Z,7.17
2023-04-16T00:33:23.741Z,7.19
2023-04-16T00:35:50.740Z,7.20
2023-04-16T00:38:17.200Z,7.17
2023-04-16T00:40:43.593Z,7.10
2023-04-16T00:43:09.943Z,7.00
2023-04-16T00:45:36.329Z,7.15
2023-04-16T00:48:03.820Z,7.10
2023-04-16T00:50:30.293Z,7.09
2023-04-16T00:52:56.673Z,7.12
2023-04-16T00:55:24.679Z,7.05
2023-04-16T00:57:51.031Z,7.06
2023-04-16T01:00:17.452Z,7.04
2023-04-16T01:02:44.473Z,6.97
2023-04-16T01:05:11.359Z,6.92
2023-04-16T01:07:37.726Z,6.91
2023-04-16T01:10:04.313Z,6.88
2023-04-16T01:12:31.140Z,6.92
2023-04-16T01:14:57.512Z,6.82
2023-04-16T01:17:23.875Z,6.80
2023-04-16T01:19:50.254Z,6.79
2023-04-16T01:22:17.263Z,6.80
2023-04-16T01:24:44.092Z,6.83
2023-04-16T01:27:10.763Z,6.80
2023-04-16T01:29:39.877Z,6.73
2023-04-16T01:32:06.283Z,6.70
2023-04-16T01:34:32.685Z,6.76
2023-04-16T01:36:59.080Z,6.76
2023-04-16T01:39:25.736Z,6.71
2023-04-16T01:41:52.110Z,6.69
2023-04-16T01:44:18.488Z,6.79
2023-04-16T01:46:45.156Z,6.67
2023-04-16T01:49:11.931Z,6.68
2023-04-16T01:51:38.530Z,6.68
2023-04-16T01:54:04.878Z,6.72
2023-04-16T01:56:31.266Z,6.65
2023-04-16T01:58:57.648Z,6.66
2023-04-16T02:01:24.272Z,6.64
2023-04-16T02:03:51.376Z,6.71
2023-04-16T02:06:17.792Z,6.63
2023-04-16T02:08:44.201Z,6.63
2023-04-16T02:11:10.792Z,6.70
2023-04-16T02:13:37.186Z,6.65
2023-04-16T02:16:08.942Z,6.57
2023-04-16T02:18:35.407Z,6.65
2023-04-16T02:21:02.260Z,6.53
2023-04-16T02:23:28.593Z,6.48
2023-04-16T02:25:57.174Z,6.53
2023-04-16T02:28:23.589Z,6.38
2023-04-16T02:30:49.917Z,6.49
2023-04-16T02:33:16.280Z,6.40
2023-04-16T02:35:43.206Z,6.39
2023-04-16T02:38:09.654Z,6.36
2023-04-16T02:40:36.221Z,6.43
2023-04-16T02:43:02.925Z,6.40
2023-04-16T02:45:31.437Z,6.33
2023-04-16T02:47:57.890Z,6.42
2023-04-16T02:50:24.275Z,6.36
2023-04-16T02:52:51.576Z,6.34
2023-04-16T02:55:17.928Z,6.27
2023-04-16T02:57:44.326Z,6.32
2023-04-16T03:00:13.456Z,6.24
2023-04-16T03:02:39.864Z,6.25
2023-04-16T03:05:06.571Z,6.25
2023-04-16T03:07:32.917Z,6.29
2023-04-16T03:10:00.631Z,6.31
2023-04-16T03:12:27.012Z,6.32
2023-04-16T03:14:53.410Z,6.33
2023-04-16T03:17:19.778Z,6.28
2023-04-16T03:19:46.280Z,6.28
2023-04-16T03:22:12.634Z,6.31
2023-04-16T03:24:38.971Z,6.31
2023-04-16T03:27:05.368Z,6.22
2023-04-16T03:29:31.706Z,6.29
2023-04-16T03:31:58.427Z,6.18
2023-04-16T03:34:24.961Z,6.19
2023-04-16T03:36:51.306Z,6.08
2023-04-16T03:39:17.684Z,6.11
2023-04-16T03:41:44.137Z,6.20
2023-04-16T03:44:10.631Z,6.12
2023-04-16T03:46:37.052Z,6.13
2023-04-16T03:49:03.466Z,6.16
2023-04-16T03:51:29.803Z,6.12
2023-04-16T03:53:56.360Z,6.15
2023-04-16T03:56:22.826Z,6.12
2023-04-16T03:58:49.607Z,6.13
2023-04-16T04:01:16.994Z,6.08
2023-04-16T04:03:43.606Z,6.08
2023-04-16T04:06:10.149Z,6.10
2023-04-16T04:08:37.991Z,6.09
2023-04-16T04:11:04.416Z,6.05
2023-04-16T04:13:30.834Z,6.07
2023-04-16T04:15:57.254Z,6.11
2023-04-16T04:18:23.640Z,6.07
2023-04-16T04:20:50.072Z,6.10
2023-04-16T04:23:16.447Z,5.98
2023-04-16T04:25:42.993Z,6.00
2023-04-16T04:28:09.458Z,6.01
2023-04-16T04:30:36.023Z,6.00
2023-04-16T04:33:02.596Z,5.97
2023-04-16T04:35:28.967Z,6.09
2023-04-16T04:37:55.649Z,6.02
2023-04-16T04:40:22.115Z,6.01
2023-04-16T04:42:48.511Z,5.92
2023-04-16T04:45:14.865Z,5.95
2023-04-16T04:47:41.517Z,6.00
2023-04-16T04:50:08.042Z,5.99
2023-04-16T04:52:34.372Z,6.00
2023-04-16T04:55:00.748Z,6.01
2023-04-16T04:57:27.614Z,5.96
2023-04-16T04:59:54.199Z,5.95
2023-04-16T05:02:20.866Z,5.94
2023-04-16T05:04:47.397Z,5.96
2023-04-16T05:07:13.793Z,6.03
2023-04-16T05:09:40.567Z,5.95
2023-04-16T05:12:07.118Z,5.94
2023-04-16T05:14:33.869Z,5.98
2023-04-16T05:17:00.604Z,5.97
2023-04-16T05:19:26.975Z,6.00
2023-04-16T05:21:53.415Z,6.06
2023-04-16T05:24:19.969Z,6.12
2023-04-16T05:26:46.380Z,6.18
2023-04-16T05:29:12.730Z,6.01
2023-04-16T05:31:39.168Z,6.08
2023-04-16T05:34:05.495Z,6.12
2023-04-16T05:36:31.852Z,6.15
2023-04-16T05:38:58.258Z,6.13
2023-04-16T05:41:24.620Z,6.18
2023-04-16T05:43:51.045Z,6.18
2023-04-16T05:46:17.490Z,6.19
2023-04-16T05:48:43.935Z,6.27
2023-04-16T05:51:10.380Z,6.32
2023-04-16T05:53:37.157Z,6.32
2023-04-16T05:56:03.483Z,6.18
2023-04-16T05:58:30.400Z,6.26
2023-04-16T06:01:05.559Z,6.26
2023-04-16T06:03:32.113Z,6.24
2023-04-16T06:05:58.663Z,6.32
2023-04-16T06:08:25.249Z,6.29
2023-04-16T06:10:51.602Z,6.25
2023-04-16T06:13:18.459Z,6.26
2023-04-16T06:15:46.078Z,6.26
2023-04-16T06:18:12.652Z,6.40
2023-04-16T06:20:39.150Z,6.41
2023-04-16T06:23:05.509Z,6.44
2023-04-16T06:25:31.984Z,6.43
2023-04-16T06:28:00.556Z,6.42
2023-04-16T06:30:26.899Z,6.46
2023-04-16T06:32:53.251Z,6.42
2023-04-16T06:35:20.373Z,6.37
2023-04-16T06:37:47.028Z,6.37
2023-04-16T06:40:13.354Z,6.41
2023-04-16T06:42:39.778Z,6.36
2023-04-16T06:45:06.512Z,6.43
2023-04-16T06:47:32.893Z,6.48
2023-04-16T06:49:59.408Z,6.47
2023-04-16T06:52:26.106Z,6.63
2023-04-16T06:54:52.490Z,6.69
2023-04-16T06:57:18.863Z,6.55
2023-04-16T06:59:45.197Z,6.60
2023-04-16T07:02:11.622Z,6.67
2023-04-16T07:04:40.696Z,6.59
2023-04-16T07:07:07.027Z,6.57
2023-04-16T07:09:33.435Z,6.47
2023-04-16T07:11:59.845Z,6.51
2023-04-16T07:14:26.305Z,6.52
2023-04-16T07:16:53.922Z,6.59
2023-04-16T07:19:21.583Z,6.54
2023-04-16T07:21:47.996Z,6.68
2023-04-16T07:24:14.408Z,6.76
2023-04-16T07:26:41.040Z,6.60
2023-04-16T07:29:07.523Z,6.82
2023-04-16T07:31:34.074Z,6.77
2023-04-16T07:34:00.663Z,6.82
2023-04-16T07:36:28.303Z,6.79
2023-04-16T07:38:54.908Z,6.78
2023-04-16T07:41:22.873Z,6.83
2023-04-16T07:43:49.648Z,6.81
2023-04-16T07:46:16.289Z,6.89
2023-04-16T07:48:42.946Z,6.90
2023-04-16T07:51:09.394Z,6.86
2023-04-16T07:53:36.058Z,6.69
2023-04-16T07:56:02.509Z,6.71
2023-04-16T07:58:28.869Z,6.95
2023-04-16T08:00:55.351Z,7.00
2023-04-16T08:03:22.183Z,6.94
2023-04-16T08:05:48.688Z,7.12
2023-04-16T08:08:15.037Z,7.05
2023-04-16T08:10:41.476Z,7.37
2023-04-16T08:13:07.818Z,7.21
2023-04-16T08:15:34.180Z,7.16
2023-04-16T08:18:02.561Z,7.19
2023-04-16T08:20:29.433Z,7.15
2023-04-16T08:22:55.973Z,7.37
2023-04-16T08:25:24.671Z,7.65
2023-04-16T08:27:51.074Z,7.85
2023-04-16T08:30:17.547Z,7.85
2023-04-16T08:32:43.994Z,7.99
2023-04-16T08:35:10.554Z,8.47
2023-04-16T08:37:36.961Z,8.63
2023-04-16T08:40:03.551Z,8.33
2023-04-16T08:42:33.450Z,8.30
2023-04-16T08:45:05.503Z,9.83
2023-04-16T08:47:31.895Z,9.39
2023-04-16T08:49:58.544Z,9.09
2023-04-16T08:52:25.016Z,8.79
2023-04-16T08:54:57.066Z,8.39
2023-04-16T08:57:23.589Z,8.55
2023-04-16T08:59:50.142Z,8.73
2023-04-16T09:02:16.618Z,8.99
2023-04-16T09:04:43.379Z,8.20
2023-04-16T09:07:09.844Z,8.32
2023-04-16T09:09:36.215Z,8.48
2023-04-16T09:12:02.615Z,8.22
2023-04-16T09:14:29.102Z,8.10
2023-04-16T09:16:55.693Z,8.41
2023-04-16T09:19:22.048Z,8.50
2023-04-16T09:21:48.520Z,8.58
2023-04-16T09:26:41.747Z,8.62
2023-04-16T09:29:09.777Z,8.98
2023-04-16T09:31:36.780Z,8.60
2023-04-16T09:34:03.238Z,8.86
2023-04-16T09:36:29.758Z,9.15
2023-04-16T09:38:57.789Z,9.39
2023-04-16T09:41:24.796Z,9.65
2023-04-16T09:43:58.386Z,10.06
2023-04-16T09:46:34.795Z,9.20
2023-04-16T09:49:10.653Z,9.93
2023-04-16T09:51:37.942Z,9.80
2023-04-16T09:54:04.774Z,9.12
2023-04-16T09:56:31.162Z,9.02
2023-04-16T09:59:00.187Z,8.84
2023-04-16T10:01:26.630Z,9.13
2023-04-16T10:03:53.873Z,8.94
2023-04-16T10:06:21.077Z,9.19
2023-04-16T10:08:50.664Z,8.81
2023-04-16T10:11:19.021Z,8.53
2023-04-16T10:13:45.608Z,8.27
2023-04-16T10:16:12.164Z,8.36
2023-04-16T10:18:41.994Z,8.47
2023-04-16T10:21:10.930Z,8.53
2023-04-16T10:23:37.249Z,8.73
2023-04-16T10:26:03.668Z,8.85
2023-04-16T10:28:30.588Z,8.77
2023-04-16T10:30:57.330Z,8.74
2023-04-16T10:33:25.031Z,8.73
2023-04-16T10:36:04.997Z,8.93
2023-04-16T10:38:33.636Z,9.07
2023-04-16T10:41:03.000Z,9.27
2023-04-16T10:43:30.381Z,8.97
2023-04-16T10:45:56.912Z,9.16
2023-04-16T10:48:27.462Z,9.18
2023-04-16T10:50:57.768Z,9.38
2023-04-16T10:53:25.023Z,9.27
2023-04-16T10:56:04.378Z,9.36
2023-04-16T10:58:31.167Z,9.44
2023-04-16T11:01:01.270Z,9.34
2023-04-16T11:03:31.858Z,9.86
2023-04-16T11:06:11.205Z,9.48
2023-04-16T11:08:51.133Z,9.55
2023-04-16T11:11:21.254Z,9.59
2023-04-16T11:13:47.893Z,9.31
2023-04-16T11:16:14.996Z,9.27
2023-04-16T11:18:47.689Z,9.40
2023-04-16T11:21:18.065Z,9.23
2023-04-16T11:23:51.296Z,9.03
2023-04-16T11:26:25.322Z,8.98
2023-04-16T11:28:51.888Z,9.44
2023-04-16T11:31:18.363Z,8.67
2023-04-16T11:33:44.883Z,9.06
2023-04-16T11:36:11.238Z,8.74
2023-04-16T11:38:37.788Z,8.56
2023-04-16T11:41:04.642Z,8.88
2023-04-16T11:43:32.354Z,8.89
2023-04-16T11:45:59.679Z,8.94
2023-04-16T11:48:26.547Z,9.35
2023-04-16T11:50:58.924Z,9.25
2023-04-16T11:53:25.706Z,9.12
2023-04-16T11:55:52.203Z,8.90
2023-04-16T11:58:20.111Z,8.75
2023-04-16T12:00:47.413Z,8.73
2023-04-16T12:03:14.132Z,8.42
2023-04-16T12:05:40.766Z,9.27
2023-04-16T12:08:08.059Z,9.77
2023-04-16T12:10:36.835Z,9.45
2023-04-16T12:13:12.415Z,8.98
2023-04-16T12:15:48.640Z,9.13
2023-04-16T12:18:19.362Z,8.89
2023-04-16T12:20:46.568Z,8.82
2023-04-16T12:23:22.557Z,9.05
2023-04-16T12:25:50.034Z,9.19
2023-04-16T12:28:27.302Z,9.41
2023-04-16T12:30:53.769Z,10.17
2023-04-16T12:33:21.191Z,10.45
2023-04-16T12:35:47.792Z,10.04
2023-04-16T12:38:15.398Z,9.39
2023-04-16T12:40:41.883Z,9.74
2023-04-16T12:43:09.518Z,9.62
2023-04-16T12:45:36.164Z,9.12
2023-04-16T12:48:02.988Z,8.86
2023-04-16T12:50:29.553Z,9.23
2023-04-16T12:52:56.392Z,9.27
2023-04-16T12:55:22.964Z,9.41
2023-04-16T12:57:50.254Z,8.95
2023-04-16T13:00:16.736Z,9.02
2023-04-16T13:02:43.291Z,8.65
2023-04-16T13:05:10.168Z,8.67
2023-04-16T13:07:36.529Z,8.97
2023-04-16T13:10:02.894Z,9.19
2023-04-16T13:12:29.381Z,8.97
2023-04-16T13:14:58.198Z,9.12
2023-04-16T13:17:24.630Z,9.47
2023-04-16T13:19:51.047Z,9.00
2023-04-16T13:22:17.564Z,9.24
2023-04-16T13:24:44.149Z,8.77
2023-04-16T13:27:11.378Z,8.92
2023-04-16T13:29:37.740Z,8.66
2023-04-16T13:32:04.223Z,8.74
2023-04-16T13:34:30.764Z,8.97
2023-04-16T13:36:57.101Z,9.23
2023-04-16T13:39:23.423Z,9.06
2023-04-16T13:41:50.401Z,9.23
2023-04-16T13:44:16.749Z,9.24
2023-04-16T13:46:47.534Z,8.75
2023-04-16T13:49:14.324Z,9.07
2023-04-16T13:51:43.632Z,8.91
2023-04-16T13:54:12.828Z,8.51
2023-04-16T13:56:39.325Z,8.80
2023-04-16T13:59:10.632Z,8.78
2023-04-16T14:01:37.189Z,8.83
2023-04-16T14:04:06.411Z,8.87
2023-04-16T14:06:33.977Z,8.83
2023-04-16T14:09:00.422Z,8.76
2023-04-16T14:11:26.892Z,8.82
2023-04-16T14:13:53.291Z,9.01
2023-04-16T14:16:19.901Z,8.74
2023-04-16T14:18:46.383Z,8.72
2023-04-16T14:21:13.106Z,8.66
2023-04-16T14:23:39.559Z,9.10
2023-04-16T14:26:06.023Z,8.81
2023-04-16T14:28:32.536Z,8.94
2023-04-16T14:30:58.919Z,8.91
2023-04-16T14:33:25.369Z,9.05
2023-04-16T14:35:52.200Z,8.89
2023-04-16T14:38:18.620Z,9.18
2023-04-16T14:40:45.055Z,8.86
2023-04-16T14:43:11.471Z,8.66
2023-04-16T14:45:38.979Z,8.81
2023-04-16T14:48:06.311Z,8.83
2023-04-16T14:50:36.577Z,8.63
2023-04-16T14:53:03.244Z,8.53
2023-04-16T14:55:29.639Z,8.38
2023-04-16T14:57:56.374Z,8.45
2023-04-16T15:00:22.798Z,8.63
2023-04-16T15:02:49.285Z,8.57
2023-04-16T15:05:15.761Z,8.39
2023-04-16T15:07:42.130Z,8.27
2023-04-16T15:10:08.932Z,8.39
2023-04-16T15:12:35.265Z,8.55
2023-04-16T15:15:01.675Z,8.49
2023-04-16T15:17:28.126Z,8.54
2023-04-16T15:19:54.539Z,8.51
2023-04-16T15:22:20.905Z,8.20
2023-04-16T15:24:49.835Z,8.25
2023-04-16T15:27:17.638Z,8.52
2023-04-16T15:29:48.060Z,8.53
2023-04-16T15:32:14.539Z,8.40
2023-04-16T15:34:41.496Z,8.26
2023-04-16T15:37:08.252Z,8.21
2023-04-16T15:39:34.622Z,8.48
2023-04-16T15:42:03.008Z,8.14
2023-04-16T15:44:31.415Z,8.21
2023-04-16T15:46:57.848Z,8.39
2023-04-16T15:49:24.759Z,8.23
2023-04-16T15:51:51.780Z,8.38
2023-04-16T15:54:18.505Z,8.29
2023-04-16T15:56:45.421Z,8.27
2023-04-16T15:59:12.357Z,8.07
2023-04-16T16:01:39.066Z,7.88
2023-04-16T16:04:06.951Z,8.03
2023-04-16T16:06:33.508Z,8.04
2023-04-16T16:08:59.882Z,7.94
2023-04-16T16:11:28.309Z,7.62
2023-04-16T16:13:54.802Z,7.95
2023-04-16T16:16:21.941Z,7.86
2023-04-16T16:18:48.719Z,7.91
2023-04-16T16:21:15.184Z,7.89
2023-04-16T16:23:42.021Z,8.00
2023-04-16T16:26:09.847Z,7.86
2023-04-16T16:28:39.301Z,7.69
2023-04-16T16:31:06.080Z,7.73
2023-04-16T16:33:32.822Z,7.72
2023-04-16T16:35:59.223Z,7.65
2023-04-16T16:38:25.882Z,7.47
2023-04-16T16:40:52.305Z,7.41
2023-04-16T16:43:18.698Z,7.44
2023-04-16T16:45:45.252Z,7.32
2023-04-16T16:48:11.560Z,7.32
2023-04-16T16:50:37.916Z,7.34
2023-04-16T16:53:04.352Z,7.36
2023-04-16T16:55:31.019Z,7.28
2023-04-16T16:57:59.815Z,7.23
2023-04-16T17:00:26.399Z,7.23
2023-04-16T17:02:53.245Z,7.20
2023-04-16T17:05:19.938Z,7.29
2023-04-16T17:07:46.718Z,7.12
2023-04-16T17:10:15.933Z,7.08
2023-04-16T17:12:42.283Z,7.12
2023-04-16T17:15:08.965Z,6.87
2023-04-16T17:17:35.402Z,6.88
2023-04-16T17:20:03.400Z,6.95
2023-04-16T17:22:30.022Z,6.76
2023-04-16T17:24:57.798Z,6.88
2023-04-16T17:27:24.536Z,6.89
2023-04-16T17:29:51.103Z,6.93
2023-04-16T17:32:17.607Z,6.64
2023-04-16T17:34:44.103Z,6.74
2023-04-16T17:37:10.523Z,6.76
2023-04-16T17:39:36.992Z,6.69
2023-04-16T17:42:03.977Z,6.56
2023-04-16T17:44:43.964Z,6.59
2023-04-16T17:47:10.748Z,6.46
2023-04-16T17:49:37.141Z,6.48
2023-04-16T17:52:03.613Z,6.39
2023-04-16T17:54:29.990Z,6.34
2023-04-16T17:56:57.452Z,6.37
2023-04-16T17:59:23.904Z,6.48
2023-04-16T18:01:50.407Z,6.50
2023-04-16T18:04:17.221Z,6.41
2023-04-16T18:06:44.147Z,6.47
2023-04-16T18:09:10.620Z,6.42
2023-04-16T18:11:37.205Z,6.45
2023-04-16T18:14:03.567Z,6.35
2023-04-16T18:16:29.912Z,6.44
2023-04-16T18:18:56.305Z,6.37
2023-04-16T18:21:22.840Z,6.27
2023-04-16T18:23:49.166Z,6.29
2023-04-16T18:26:18.597Z,6.34
2023-04-16T18:28:47.249Z,6.27
2023-04-16T18:31:13.916Z,6.31
2023-04-16T18:33:55.319Z,6.36
2023-04-16T18:36:23.587Z,6.28
2023-04-16T18:39:00.173Z,6.22
2023-04-16T18:41:48.005Z,6.24
2023-04-16T18:44:14.996Z,6.13
2023-04-16T18:46:41.363Z,5.96
2023-04-16T18:49:07.831Z,5.99
2023-04-16T18:51:34.169Z,5.95
2023-04-16T18:54:00.653Z,5.83
2023-04-16T18:56:28.847Z,5.93
2023-04-16T18:58:55.379Z,5.98
2023-04-16T19:01:21.788Z,5.98
2023-04-16T19:03:48.392Z,5.95
2023-04-16T19:06:14.764Z,6.07
2023-04-16T19:08:41.115Z,5.90
2023-04-16T19:11:07.550Z,5.88
2023-04-16T19:13:33.939Z,5.86
2023-04-16T19:16:02.275Z,5.87
2023-04-16T19:18:29.133Z,5.84
2023-04-16T19:20:59.715Z,5.71
2023-04-16T19:23:26.995Z,5.77
2023-04-16T19:25:53.648Z,5.90
2023-04-16T19:28:20.052Z,5.77
2023-04-16T19:30:46.705Z,5.59
2023-04-16T19:33:13.234Z,5.69
2023-04-16T19:35:42.096Z,5.70
2023-04-16T19:38:10.309Z,5.72
2023-04-16T19:40:37.309Z,5.82
2023-04-16T19:43:03.716Z,5.77
2023-04-16T19:45:30.403Z,5.74
2023-04-16T19:47:57.132Z,5.81
2023-04-16T19:50:23.971Z,5.70
2023-04-16T19:52:50.375Z,5.68
2023-04-16T19:55:16.934Z,5.61
2023-04-16T19:57:43.367Z,5.58
2023-04-16T20:00:11.419Z,5.55
2023-04-16T20:02:38.147Z,5.70
2023-04-16T20:05:04.726Z,5.51
2023-04-16T20:07:31.098Z,5.52
2023-04-16T20:09:57.521Z,5.66
2023-04-16T20:12:23.958Z,5.67
2023-04-16T20:14:50.407Z,5.57
2023-04-16T20:17:18.539Z,5.55
2023-04-16T20:19:47.291Z,5.58
2023-04-16T20:22:14.918Z,5.47
2023-04-16T20:24:47.775Z,5.46
2023-04-16T20:27:15.038Z,5.46
2023-04-16T20:29:41.770Z,5.48
2023-04-16T20:32:08.263Z,5.40
2023-04-16T20:34:34.658Z,5.29
2023-04-16T20:37:01.019Z,5.42
2023-04-16T20:39:27.444Z,5.45
2023-04-16T20:41:57.834Z,5.41
2023-04-16T20:44:26.173Z,5.30
2023-04-16T20:46:56.229Z,5.35
2023-04-16T20:49:22.856Z,5.34
2023-04-16T20:51:49.245Z,5.38
2023-04-16T20:54:15.783Z,5.34
2023-04-16T20:56:43.142Z,5.28
2023-04-16T20:59:10.293Z,5.22
2023-04-16T21:01:36.968Z,5.20
2023-04-16T21:04:03.636Z,5.25
2023-04-16T21:06:32.975Z,5.22
2023-04-16T21:09:01.744Z,5.29
2023-04-16T21:11:33.165Z,5.22
2023-04-16T21:13:59.508Z,5.27
2023-04-16T21:16:25.905Z,5.19
2023-04-16T21:18:52.391Z,5.21
2023-04-16T21:21:19.921Z,5.21
2023-04-16T21:23:46.435Z,5.10
2023-04-16T21:26:13.115Z,5.06
2023-04-16T21:28:39.708Z,5.03
2023-04-16T21:31:07.431Z,5.04
2023-04-16T21:33:33.807Z,5.06
2023-04-16T21:36:00.300Z,5.07
2023-04-16T21:38:26.731Z,5.06
2023-04-16T21:40:56.725Z,5.02
2023-04-16T21:43:23.420Z,5.07
2023-04-16T21:45:53.899Z,5.07
2023-04-16T21:48:20.950Z,5.13
2023-04-16T21:50:54.336Z,5.10
2023-04-16T21:53:20.701Z,5.12
2023-04-16T21:55:47.496Z,5.16
2023-04-16T21:58:15.692Z,5.17
2023-04-16T22:00:43.376Z,5.16
2023-04-16T22:03:12.402Z,5.14
2023-04-16T22:05:39.022Z,5.15
2023-04-16T22:08:23.597Z,5.16
2023-04-16T22:10:51.297Z,5.20
2023-04-16T22:13:17.954Z,5.20
2023-04-16T22:15:46.681Z,5.23
2023-04-16T22:18:13.089Z,5.34
2023-04-16T22:20:39.804Z,5.34
2023-04-16T22:23:07.378Z,5.34
2023-04-16T22:25:34.924Z,5.33
2023-04-16T22:28:01.593Z,5.32
2023-04-16T22:30:30.526Z,5.30
2023-04-16T22:32:57.795Z,5.39
2023-04-16T22:35:24.187Z,5.40
2023-04-16T22:37:50.567Z,5.43
2023-04-16T22:40:17.594Z,5.38
2023-04-16T22:42:44.038Z,5.39
2023-04-16T22:45:10.739Z,5.45
2023-04-16T22:47:37.209Z,5.41
2023-04-16T22:50:04.982Z,5.42
2023-04-16T22:52:31.351Z,5.52
2023-04-16T22:54:57.719Z,5.46
2023-04-16T22:57:25.673Z,5.45
2023-04-16T22:59:52.997Z,5.48
2023-04-16T23:02:19.953Z,5.47
2023-04-16T23:04:47.786Z,5.45
2023-04-16T23:07:14.874Z,5.52
2023-04-16T23:09:41.303Z,5.50
2023-04-16T23:12:07.740Z,5.41
2023-04-16T23:14:34.540Z,5.36
2023-04-16T23:17:01.361Z,5.40
2023-04-16T23:19:27.764Z,5.43
2023-04-16T23:21:54.125Z,5.51
2023-04-16T23:24:20.566Z,5.49
2023-04-16T23:26:47.964Z,5.37
2023-04-16T23:29:14.336Z,5.41
2023-04-16T23:31:40.879Z,5.40
2023-04-16T23:34:07.895Z,5.41
2023-04-16T23:36:34.226Z,5.43
2023-04-16T23:39:00.775Z,5.37
2023-04-16T23:41:27.155Z,5.36
2023-04-16T23:43:53.492Z,5.38
2023-04-16T23:46:20.407Z,5.40
2023-04-16T23:48:46.820Z,5.42
2023-04-16T23:51:13.254Z,5.37
2023-04-16T23:53:40.788Z,5.40
2023-04-16T23:56:07.786Z,5.44
2023-04-16T23:58:34.202Z,5.46
